Time;durP1;ratioP1;P1;durP2;ratioP2;P2;SDS_P1;SDS_P2;PMS_P1;PMS_P2;Temp;Humidity;BMP_temperature;BMP_pressure;BME280_temperature;BME280_humidity;BME280_pressure;Samples;Min_cycle;Max_cycle;Signal;HPM_P1;HPM_P2
2022/06/14 00:01:28;;;;;;;109.03;99.93;;;;;;;16.93;100.00;100794.53;5109626;28;20055;-85
2022/06/14 00:03:57;;;;;;;112.95;103.22;;;;;;;16.90;100.00;100808.44;5105363;28;20393;-82
2022/06/14 00:06:30;;;;;;;107.72;98.43;;;;;;;16.66;100.00;100802.38;5110737;28;20040;-83
2022/06/14 00:09:01;;;;;;;110.80;99.60;;;;;;;16.79;100.00;100809.31;5110648;28;20044;-84
2022/06/14 00:11:32;;;;;;;114.45;104.20;;;;;;;16.81;100.00;100809.91;5111093;28;20055;-82
2022/06/14 00:14:09;;;;;;;123.60;111.93;;;;;;;16.61;100.00;100804.97;5106543;28;20048;-83
2022/06/14 00:16:45;;;;;;;113.18;102.38;;;;;;;16.67;100.00;100804.00;5107525;28;20048;-84
2022/06/14 00:19:12;;;;;;;109.70;100.28;;;;;;;16.78;100.00;100796.97;5115230;28;20059;-84
2022/06/14 00:21:39;;;;;;;122.28;111.65;;;;;;;16.64;100.00;100799.13;5099605;28;20043;-85
2022/06/14 00:24:06;;;;;;;111.43;102.13;;;;;;;16.62;100.00;100801.25;5094413;28;20059;-85
2022/06/14 00:26:33;;;;;;;114.32;104.80;;;;;;;16.70;100.00;100800.84;5112791;28;20047;-83
2022/06/14 00:29:08;;;;;;;115.78;106.05;;;;;;;16.57;100.00;100803.84;5103465;28;20055;-84
2022/06/14 00:31:45;;;;;;;118.07;108.35;;;;;;;16.65;100.00;100803.47;5108680;28;20088;-85
2022/06/14 00:34:15;;;;;;;121.50;110.82;;;;;;;16.75;100.00;100790.19;5107861;28;20120;-83
2022/06/14 00:36:53;;;;;;;113.65;103.82;;;;;;;16.59;100.00;100788.34;5108158;28;20052;-85
2022/06/14 00:39:21;;;;;;;117.15;106.80;;;;;;;16.58;100.00;100794.75;5101521;28;20067;-84
2022/06/14 00:41:50;;;;;;;116.78;106.72;;;;;;;16.60;100.00;100800.69;5104080;28;20040;-83
2022/06/14 00:44:28;;;;;;;127.53;116.50;;;;;;;16.63;100.00;100798.31;5110408;28;20043;-83
2022/06/14 00:47:15;;;;;;;112.65;102.80;;;;;;;16.60;100.00;100801.50;5109973;28;20044;-85
2022/06/14 00:49:58;;;;;;;115.93;105.38;;;;;;;16.51;100.00;100802.16;5108701;28;20453;-84
2022/06/14 00:52:34;;;;;;;108.80;98.50;;;;;;;16.57;100.00;100803.84;5111162;28;20049;-83
2022/06/14 00:55:09;;;;;;;109.22;99.50;;;;;;;16.55;100.00;100797.91;5106048;28;20427;-83
2022/06/14 00:57:52;;;;;;;119.88;109.20;;;;;;;16.39;100.00;100803.03;5108091;28;20048;-84
2022/06/14 01:00:26;;;;;;;127.30;117.15;;;;;;;16.74;100.00;100793.13;5108075;28;20051;-84
2022/06/14 01:02:59;;;;;;;109.57;100.35;;;;;;;16.79;100.00;100807.44;5115554;28;20048;-84
2022/06/14 01:06:05;;;;;;;107.15;98.25;;;;;;;16.69;100.00;100802.72;5113009;28;20427;-84
2022/06/14 01:08:24;;;;;;;116.03;106.25;;;;;;;16.66;100.00;100802.38;5113767;28;20109;-84
2022/06/14 01:10:51;;;;;;;105.45;96.35;;;;;;;16.64;100.00;100799.13;5113485;28;20047;-83
2022/06/14 01:13:23;;;;;;;107.07;97.80;;;;;;;16.75;100.00;100798.25;5107481;28;20059;-84
2022/06/14 01:15:53;;;;;;;109.45;99.93;;;;;;;16.56;100.00;100797.69;5109286;28;20113;-84
2022/06/14 01:18:24;;;;;;;114.30;104.47;;;;;;;16.56;100.00;100796.88;5119243;28;20549;-85
2022/06/14 01:20:53;;;;;;;108.85;99.55;;;;;;;16.49;100.00;100794.38;5122421;28;20061;-85
2022/06/14 01:23:25;;;;;;;104.05;94.15;;;;;;;16.69;100.00;100796.53;5111066;28;20116;-85
2022/06/14 01:26:05;;;;;;;109.20;99.55;;;;;;;16.66;100.00;100779.06;5121590;28;20134;-84
2022/06/14 01:28:32;;;;;;;102.32;93.13;;;;;;;16.54;100.00;100783.69;5110424;28;20053;-83
2022/06/14 01:31:00;;;;;;;100.10;91.40;;;;;;;16.70;100.00;100790.94;5113219;28;20047;-84
2022/06/14 01:33:41;;;;;;;108.97;99.60;;;;;;;16.70;100.00;100784.75;5114067;28;20140;-84
2022/06/14 01:36:16;;;;;;;100.95;91.78;;;;;;;16.68;100.00;100774.28;5114532;28;20408;-83
2022/06/14 01:38:49;;;;;;;118.72;109.22;;;;;;;16.63;100.00;100792.16;5109847;28;20132;-83
2022/06/14 01:41:21;;;;;;;;;;;;;;;16.55;100.00;100787.19;5103695;28;20127;-83
2022/06/14 01:44:21;;;;;;;116.30;106.45;;;;;;;16.55;100.00;100787.19;5110883;28;19943;-83
2022/06/14 01:47:01;;;;;;;112.45;102.55;;;;;;;16.56;100.00;100784.28;5111396;28;20048;-85
2022/06/14 01:52:31;;;;;;;118.60;108.40;;;;;;;16.47;100.00;100791.09;5116053;28;20101;-85
2022/06/14 01:55:15;;;;;;;105.07;96.03;;;;;;;16.60;100.00;100785.41;5106114;28;20569;-83
2022/06/14 01:57:54;;;;;;;110.40;101.63;;;;;;;16.53;100.00;100779.41;5108406;28;20052;-85
2022/06/14 02:06:04;;;;;;;111.35;101.57;;;;;;;16.17;100.00;100797.56;5070030;28;20059;-87
2022/06/14 02:08:45;;;;;;;114.15;104.90;;;;;;;16.36;100.00;100800.03;5065510;28;20060;-86
2022/06/14 02:11:35;;;;;;;99.75;90.63;;;;;;;16.32;100.00;100797.00;5073088;28;20052;-85
2022/06/14 02:14:17;;;;;;;114.72;105.68;;;;;;;16.42;100.00;100805.22;5060640;28;20078;-85
2022/06/14 02:16:54;;;;;;;108.68;99.45;;;;;;;16.31;100.00;100794.56;5073042;28;20045;-83
2022/06/14 02:19:45;;;;;;;112.35;102.25;;;;;;;16.19;100.00;100800.00;5070064;28;20041;-85
2022/06/14 02:22:23;;;;;;;122.07;111.88;;;;;;;16.26;100.00;100800.66;5065142;28;20424;-84
2022/06/14 02:24:55;;;;;;;121.15;111.13;;;;;;;16.18;100.00;100787.66;5066692;28;20095;-84
2022/06/14 02:27:38;;;;;;;117.40;107.28;;;;;;;16.38;100.00;100797.91;5056295;28;20049;-86
2022/06/14 02:30:10;;;;;;;107.15;98.13;;;;;;;16.36;100.00;100798.16;5059132;28;20041;-83
2022/06/14 02:32:43;;;;;;;111.47;101.40;;;;;;;16.02;100.00;100800.78;5064085;28;20465;-85
2022/06/14 02:35:14;;;;;;;107.55;97.90;;;;;;;16.34;100.00;100799.44;5055272;28;20065;-84
2022/06/14 02:37:47;;;;;;;106.15;96.65;;;;;;;16.26;100.00;100793.44;5036412;28;20045;-84
2022/06/14 02:40:27;;;;;;;107.03;97.82;;;;;;;16.45;100.00;100799.38;5052076;28;20080;-84
2022/06/14 02:43:02;;;;;;;105.95;96.93;;;;;;;16.20;100.00;100802.44;5036428;28;20401;-84
2022/06/14 02:45:33;;;;;;;101.90;93.50;;;;;;;16.31;100.00;100807.97;5040466;28;20122;-83
2022/06/14 02:48:07;;;;;;;99.53;90.45;;;;;;;16.41;100.00;100802.78;5052988;28;20041;-85
2022/06/14 02:50:39;;;;;;;107.53;98.35;;;;;;;16.33;100.00;100811.22;5050619;28;20049;-85
2022/06/14 02:53:14;;;;;;;106.70;97.35;;;;;;;16.35;100.00;100804.56;5070052;28;20048;-83
2022/06/14 02:55:47;;;;;;;101.82;92.80;;;;;;;16.14;100.00;100814.13;5055997;28;20136;-84
2022/06/14 02:58:21;;;;;;;102.55;93.95;;;;;;;16.04;100.00;100811.25;5072049;28;20052;-83
2022/06/14 03:00:51;;;;;;;104.82;95.45;;;;;;;16.20;100.00;100817.69;5075069;28;20064;-85
2022/06/14 03:03:22;;;;;;;106.35;97.47;;;;;;;16.29;100.00;100818.94;5073200;28;20055;-86
2022/06/14 03:05:55;;;;;;;99.15;90.25;;;;;;;16.32;100.00;100833.72;5058059;28;20417;-84
2022/06/14 03:08:27;;;;;;;109.22;99.60;;;;;;;16.37;100.00;100839.16;5057275;28;20041;-83
2022/06/14 03:11:04;;;;;;;106.95;97.85;;;;;;;16.53;100.00;100846.44;5064684;28;20048;-83
2022/06/14 03:13:51;;;;;;;100.15;91.53;;;;;;;16.63;100.00;100848.47;5058242;28;20064;-85
2022/06/14 03:16:32;;;;;;;109.13;99.68;;;;;;;16.65;100.00;100846.34;5055207;28;20056;-84
2022/06/14 03:19:07;;;;;;;108.22;99.03;;;;;;;16.67;100.00;100838.88;5055039;28;20404;-83
2022/06/14 03:21:46;;;;;;;111.70;102.28;;;;;;;16.82;100.00;100847.19;5060994;28;20057;-84
2022/06/14 03:24:29;;;;;;;109.20;99.85;;;;;;;16.81;100.00;100850.13;5059449;28;20516;-85
2022/06/14 03:27:07;;;;;;;112.57;102.97;;;;;;;16.80;100.00;100852.00;5056752;28;20041;-83
2022/06/14 03:29:47;;;;;;;113.25;103.82;;;;;;;16.91;100.00;100856.47;5076011;28;20052;-85
2022/06/14 03:32:20;;;;;;;111.53;101.70;;;;;;;16.85;100.00;100859.31;5066602;28;20059;-83
2022/06/14 03:34:52;;;;;;;106.00;96.50;;;;;;;16.95;100.00;100859.47;5063508;28;20052;-84
2022/06/14 03:37:20;;;;;;;117.47;107.20;;;;;;;17.08;100.00;100861.00;5061711;28;20441;-82
2022/06/14 03:39:52;;;;;;;105.63;96.20;;;;;;;16.90;100.00;100862.88;5044318;28;20056;-85
2022/06/14 03:42:29;;;;;;;114.88;104.78;;;;;;;17.17;100.00;100854.16;5042465;28;20064;-84
2022/06/14 03:44:58;;;;;;;103.50;94.00;;;;;;;17.24;100.00;100862.03;5061315;28;20056;-83
2022/06/14 03:47:35;;;;;;;103.00;93.97;;;;;;;17.36;100.00;100860.06;5076135;28;20044;-84
2022/06/14 03:50:05;;;;;;;110.97;102.05;;;;;;;17.47;100.00;100869.09;5070352;28;20072;-84
2022/06/14 03:52:47;;;;;;;116.15;106.32;;;;;;;17.53;100.00;100858.16;5077401;28;20051;-84
2022/06/14 03:55:35;;;;;;;112.60;103.80;;;;;;;17.59;100.00;100864.41;5076065;28;20059;-84
2022/06/14 03:58:20;;;;;;;107.30;97.95;;;;;;;17.53;100.00;100860.84;5063223;28;20376;-85
2022/06/14 04:00:53;;;;;;;100.32;91.35;;;;;;;17.43;100.00;100866.09;5054013;28;20049;-83
2022/06/14 04:03:51;;;;;;;90.60;82.20;;;;;;;17.59;100.00;100862.53;5052669;28;20053;-84
2022/06/14 04:06:32;;;;;;;100.97;91.20;;;;;;;17.61;100.00;100860.44;5049241;28;20049;-86
2022/06/14 04:09:15;;;;;;;103.13;93.38;;;;;;;17.68;100.00;100865.59;5054364;28;20052;-85
2022/06/14 04:11:48;;;;;;;105.07;95.38;;;;;;;17.75;100.00;100863.53;5054672;28;20104;-84
2022/06/14 04:14:29;;;;;;;109.88;101.05;;;;;;;18.08;100.00;100865.28;5037906;28;20042;-84
2022/06/14 04:17:11;;;;;;;116.90;107.03;;;;;;;18.25;100.00;100867.91;5052838;28;20469;-84
2022/06/14 04:19:52;;;;;;;118.63;109.13;;;;;;;18.34;100.00;100870.16;5035485;28;20049;-85
2022/06/14 04:22:43;;;;;;;122.80;113.22;;;;;;;18.24;100.00;100877.03;5035790;28;20080;-85
2022/06/14 04:25:27;;;;;;;129.10;117.85;;;;;;;18.49;100.00;100878.38;5053758;28;20056;-85
2022/06/14 04:28:19;;;;;;;111.75;102.30;;;;;;;18.48;100.00;100882.09;5054141;28;20501;-86
2022/06/14 04:31:25;;;;;;;106.78;97.45;;;;;;;18.67;100.00;100877.16;5054292;28;20493;-84
2022/06/14 04:34:09;;;;;;;114.18;104.72;;;;;;;18.83;100.00;100878.97;5053503;28;20053;-86
2022/06/14 04:37:04;;;;;;;117.57;107.68;;;;;;;18.92;100.00;100877.41;5058684;28;20068;-88
2022/06/14 04:39:38;;;;;;;130.80;119.75;;;;;;;19.14;100.00;100882.69;5054417;28;20049;-86
2022/06/14 04:42:24;;;;;;;126.35;115.93;;;;;;;19.27;100.00;100878.72;5054444;28;20051;-86
2022/06/14 04:44:56;;;;;;;132.75;122.03;;;;;;;19.42;100.00;100886.88;5052737;28;20088;-87
2022/06/14 04:47:48;;;;;;;131.02;120.35;;;;;;;19.58;100.00;100873.53;5058627;28;20045;-87
2022/06/14 04:50:50;;;;;;;121.88;111.63;;;;;;;19.67;100.00;100885.47;5036720;28;20383;-87
2022/06/14 04:53:43;;;;;;;132.43;121.80;;;;;;;19.86;100.00;100875.84;5039834;28;20056;-88
2022/06/14 04:56:33;;;;;;;150.35;138.75;;;;;;;19.90;100.00;100889.59;5054125;28;20045;-87
2022/06/14 04:59:07;;;;;;;150.20;138.80;;;;;;;20.24;100.00;100886.44;5034460;28;20041;-88
2022/06/14 05:01:42;;;;;;;153.40;141.75;;;;;;;20.42;100.00;100888.63;5034142;28;20060;-87
2022/06/14 05:04:20;;;;;;;134.50;124.10;;;;;;;20.47;100.00;100880.56;5037339;28;20440;-87
2022/06/14 05:06:54;;;;;;;137.38;126.47;;;;;;;20.76;100.00;100894.41;5054048;28;20084;-87
2022/06/14 05:09:37;;;;;;;136.38;125.57;;;;;;;20.99;100.00;100894.91;5054301;28;20080;-86
2022/06/14 05:12:14;;;;;;;135.85;125.60;;;;;;;21.18;100.00;100895.16;5054029;28;20477;-87
2022/06/14 05:14:50;;;;;;;139.48;128.32;;;;;;;21.16;100.00;100905.44;5049646;28;20057;-87
2022/06/14 05:17:31;;;;;;;153.02;141.25;;;;;;;21.25;100.00;100899.22;5041425;28;20085;-87
2022/06/14 05:20:04;;;;;;;157.05;145.15;;;;;;;21.37;100.00;100895.44;5053014;28;20472;-85
2022/06/14 05:22:40;;;;;;;130.23;120.03;;;;;;;21.47;100.00;100898.91;5065172;28;20060;-86
2022/06/14 05:25:20;;;;;;;134.85;124.10;;;;;;;21.43;100.00;100899.75;5034405;28;20413;-87
2022/06/14 05:28:02;;;;;;;127.43;117.63;;;;;;;21.49;100.00;100902.16;5036833;28;20052;-88
2022/06/14 05:30:52;;;;;;;126.93;117.07;;;;;;;21.63;100.00;100899.69;5042192;28;20045;-87
2022/06/14 05:33:41;;;;;;;108.40;99.85;;;;;;;21.75;100.00;100896.66;5042879;28;20052;-87
2022/06/14 05:36:13;;;;;;;97.45;90.18;;;;;;;21.76;100.00;100905.63;5049564;28;20115;-87
2022/06/14 05:38:58;;;;;;;106.00;97.80;;;;;;;21.85;100.00;100903.97;5053772;28;20048;-87
2022/06/14 05:41:53;;;;;;;105.28;97.40;;;;;;;21.89;100.00;100897.69;5047617;28;20041;-87
2022/06/14 05:44:32;;;;;;;93.50;85.80;;;;;;;21.91;100.00;100894.75;5050541;28;20056;-87
2022/06/14 05:47:10;;;;;;;93.35;86.13;;;;;;;22.04;100.00;100901.44;5043395;28;20474;-87
2022/06/14 05:49:52;;;;;;;81.25;74.80;;;;;;;22.16;100.00;100901.91;5054757;28;20045;-85
2022/06/14 05:52:31;;;;;;;96.50;88.60;;;;;;;22.24;100.00;100911.34;5077804;28;20048;-86
2022/06/14 05:55:38;;;;;;;85.88;78.97;;;;;;;22.48;100.00;100906.06;5077642;28;20048;-87
2022/06/14 05:58:13;;;;;;;94.35;86.55;;;;;;;22.35;100.00;100911.00;5064311;28;20053;-87
2022/06/14 06:01:02;;;;;;;71.55;65.70;;;;;;;22.55;100.00;100901.97;5057322;28;20056;-87
2022/06/14 06:03:55;;;;;;;86.97;79.90;;;;;;;22.60;100.00;100909.22;5018131;28;20125;-88
2022/06/14 06:06:29;;;;;;;98.30;90.78;;;;;;;22.79;100.00;100909.38;5017791;28;20068;-86
2022/06/14 06:09:17;;;;;;;86.32;79.70;;;;;;;22.69;100.00;100907.53;5030000;28;20053;-87
2022/06/14 06:11:52;;;;;;;79.68;72.70;;;;;;;22.89;100.00;100906.56;5036912;28;20057;-87
2022/06/14 06:14:31;;;;;;;78.65;71.90;;;;;;;23.00;100.00;100904.63;5038094;28;20053;-87
2022/06/14 06:17:12;;;;;;;73.57;67.72;;;;;;;22.92;100.00;100910.63;4999190;28;20128;-84
2022/06/14 06:19:47;;;;;;;65.90;60.38;;;;;;;23.08;100.00;100907.50;5017406;28;20054;-87
2022/06/14 06:22:21;;;;;;;66.32;61.05;;;;;;;23.14;100.00;100908.28;5017816;28;20038;-87
2022/06/14 06:25:10;;;;;;;61.65;55.90;;;;;;;23.13;100.00;100900.44;5017881;28;20050;-85
2022/06/14 06:27:50;;;;;;;67.80;62.20;;;;;;;23.30;100.00;100896.22;5018650;28;20383;-84
2022/06/14 06:30:29;;;;;;;71.63;66.00;;;;;;;23.51;100.00;100901.38;5027005;28;20046;-86
2022/06/14 06:32:57;;;;;;;57.60;52.60;;;;;;;23.63;100.00;100903.72;5018082;28;20054;-86
2022/06/14 06:35:35;;;;;;;53.40;49.10;;;;;;;23.50;100.00;100902.50;5033296;28;20041;-84
2022/06/14 06:38:26;;;;;;;58.45;53.85;;;;;;;23.74;100.00;100906.03;4998326;28;20062;-86
2022/06/14 06:44:14;;;;;;;82.72;76.93;;;;;;;23.91;100.00;100907.50;4997968;28;20050;-85
2022/06/14 06:46:49;;;;;;;82.60;76.60;;;;;;;23.70;100.00;100907.72;4997748;28;20128;-86
2022/06/14 06:49:19;;;;;;;58.90;53.95;;;;;;;23.64;100.00;100903.44;5000674;28;20046;-86
2022/06/14 06:51:51;;;;;;;51.53;47.40;;;;;;;23.65;100.00;100904.22;5008660;28;20049;-86
2022/06/14 06:54:35;;;;;;;67.10;61.65;;;;;;;23.83;100.00;100908.91;5016562;28;20061;-86
2022/06/14 06:57:05;;;;;;;64.00;58.70;;;;;;;23.80;100.00;100917.63;5017552;28;20049;-85
2022/06/14 06:59:35;;;;;;;47.42;43.33;;;;;;;23.82;100.00;100909.22;5018293;28;20057;-86
2022/06/14 07:02:13;;;;;;;48.30;44.42;;;;;;;23.94;100.00;100902.28;5026333;28;20548;-86
2022/06/14 07:07:39;;;;;;;59.27;54.27;;;;;;;24.26;100.00;100911.59;5036553;28;20037;-86
2022/06/14 07:10:21;;;;;;;44.47;41.10;;;;;;;23.90;100.00;100912.06;5075677;28;20083;-84
2022/06/14 07:13:02;;;;;;;48.30;44.72;;;;;;;23.83;100.00;100918.97;5065992;28;20053;-84
2022/06/14 07:15:40;;;;;;;48.37;44.47;;;;;;;23.92;100.00;100914.50;5062650;28;20044;-84
2022/06/14 07:18:15;;;;;;;62.80;57.67;;;;;;;24.09;100.00;100919.47;5068464;28;20302;-86
2022/06/14 07:20:51;;;;;;;46.78;42.97;;;;;;;23.91;100.00;100916.44;5074187;28;20508;-85
2022/06/14 07:23:42;;;;;;;62.30;56.85;;;;;;;24.23;100.00;100921.13;5077140;28;20060;-87
2022/06/14 07:26:23;;;;;;;49.50;45.60;;;;;;;24.28;100.00;100923.00;5057337;28;20060;-87
2022/06/14 07:29:03;;;;;;;45.53;41.80;;;;;;;24.21;100.00;100915.22;5055150;28;20040;-87
2022/06/14 07:31:43;;;;;;;65.97;60.58;;;;;;;24.51;100.00;100917.78;5057572;28;20049;-86
2022/06/14 07:34:16;;;;;;;53.78;49.53;;;;;;;24.43;100.00;100914.66;5046460;28;20402;-85
2022/06/14 07:36:57;;;;;;;55.15;50.70;;;;;;;24.55;100.00;100916.13;5045276;28;20048;-83
2022/06/14 07:39:28;;;;;;;78.73;72.43;;;;;;;24.74;100.00;100925.03;5037414;28;20045;-85
2022/06/14 07:42:02;;;;;;;70.57;64.78;;;;;;;24.65;100.00;100919.47;5039764;28;20303;-88
2022/06/14 07:44:34;;;;;;;73.28;67.05;;;;;;;24.80;100.00;100928.50;5071678;28;20061;-85
2022/06/14 07:47:08;;;;;;;70.25;64.25;;;;;;;24.73;100.00;100919.94;5077816;28;20059;-85
2022/06/14 07:49:50;;;;;;;47.58;43.75;;;;;;;24.35;100.00;100918.00;5079080;28;20079;-85
2022/06/14 07:52:23;;;;;;;53.58;49.13;;;;;;;24.68;100.00;100920.78;5076321;28;20048;-85
2022/06/14 07:54:54;;;;;;;54.33;49.67;;;;;;;24.86;100.00;100921.88;5074257;28;20067;-86
2022/06/14 07:57:26;;;;;;;52.40;48.45;;;;;;;24.43;100.00;100905.72;5067773;28;20048;-85
2022/06/14 07:59:57;;;;;;;54.00;49.75;;;;;;;24.81;100.00;100920.06;5063805;28;20134;-86
2022/06/14 08:02:31;;;;;;;62.75;57.50;;;;;;;25.03;100.00;100921.34;5066307;28;20489;-84
2022/06/14 08:05:11;;;;;;;58.25;52.38;;;;;;;25.73;100.00;100926.56;5062719;28;20984;-85
2022/06/14 08:07:41;;;;;;;60.88;55.28;;;;;;;26.01;100.00;100921.94;5046982;28;20057;-86
2022/06/14 08:10:21;;;;;;;44.83;41.42;;;;;;;25.69;100.00;100920.13;5057867;28;20110;-84
2022/06/14 08:12:54;;;;;;;51.50;47.17;;;;;;;25.78;100.00;100926.47;5057064;28;20071;-85
2022/06/14 08:15:31;;;;;;;62.10;56.92;;;;;;;25.72;100.00;100918.69;5059280;28;20072;-84
2022/06/14 08:18:02;;;;;;;70.75;64.78;;;;;;;25.77;100.00;100924.84;5048896;28;20651;-86
2022/06/14 08:20:41;;;;;;;64.65;59.65;;;;;;;25.58;100.00;100918.72;5063475;28;20057;-86
2022/06/14 08:23:14;;;;;;;45.22;40.97;;;;;;;25.12;100.00;100923.06;5072216;28;20045;-83
2022/06/14 08:25:45;;;;;;;43.45;40.15;;;;;;;24.86;100.00;100911.00;5077868;28;20076;-84
2022/06/14 08:28:24;;;;;;;48.58;44.63;;;;;;;25.42;100.00;100920.94;5063227;28;20053;-83
2022/06/14 08:30:58;;;;;;;64.07;58.85;;;;;;;25.64;100.00;100930.31;5056813;28;20126;-84
2022/06/14 08:33:55;;;;;;;42.50;39.40;;;;;;;25.44;100.00;100926.06;5060050;28;20052;-85
2022/06/14 08:36:26;;;;;;;48.08;44.72;;;;;;;25.23;100.00;100914.75;5064127;28;20048;-84
2022/06/14 08:39:02;;;;;;;57.58;53.25;;;;;;;25.17;100.00;100922.19;5055491;28;20048;-85
2022/06/14 08:41:59;;;;;;;43.47;40.33;;;;;;;25.60;100.00;100921.94;5047264;28;20045;-85
2022/06/14 08:44:37;;;;;;;38.95;36.15;;;;;;;25.18;100.00;100925.72;5063337;28;20073;-84
2022/06/14 08:47:49;;;;;;;47.10;43.65;;;;;;;25.42;100.00;100923.66;5077226;28;20052;-87
2022/06/14 08:50:58;;;;;;;41.55;38.65;;;;;;;25.36;100.00;100920.22;5061806;28;20041;-85
2022/06/14 08:54:08;;;;;;;44.90;41.78;;;;;;;25.56;100.00;100929.09;5038677;28;20096;-86
2022/06/14 08:57:12;;;;;;;53.85;50.28;;;;;;;25.76;100.00;100927.88;5044400;28;20501;-85
2022/06/14 09:00:05;;;;;;;60.13;56.00;;;;;;;25.49;100.00;100925.97;5055331;28;20056;-84
2022/06/14 09:03:26;;;;;;;48.42;44.80;;;;;;;25.73;100.00;100933.94;5036842;28;20061;-85
2022/06/14 09:06:39;;;;;;;44.97;41.65;;;;;;;25.86;100.00;100935.06;4970465;28;20047;-84
2022/06/14 09:09:55;;;;;;;43.20;40.42;;;;;;;25.18;100.00;100918.38;4975067;28;20135;-85
2022/06/14 09:12:57;;;;;;;59.25;54.72;;;;;;;25.86;100.00;100938.59;4974714;28;20050;-85
2022/06/14 09:16:16;;;;;;;75.57;70.13;;;;;;;26.07;100.00;100930.81;4975208;28;20576;-86
2022/06/14 09:19:13;;;;;;;51.05;47.22;;;;;;;25.75;100.00;100934.41;5070182;28;20102;-86
2022/06/14 09:21:55;;;;;;;55.30;51.33;;;;;;;25.90;100.00;100934.16;5058952;28;20049;-83
2022/06/14 09:24:26;;;;;;;;;;;;;;;26.03;100.00;100933.34;5077319;28;20449;-85
2022/06/14 09:27:07;;;;;;;35.60;33.20;;;;;;;25.40;100.00;100927.78;5075700;28;19924;-85
2022/06/14 09:30:08;;;;;;;45.83;42.58;;;;;;;25.97;100.00;100925.59;5059390;28;20119;-85
2022/06/14 09:33:15;;;;;;;40.80;37.47;;;;;;;26.33;100.00;100919.38;5060811;28;20061;-86
2022/06/14 09:36:21;;;;;;;44.03;40.97;;;;;;;26.50;100.00;100917.59;5072363;28;20131;-86
2022/06/14 09:39:25;;;;;;;33.65;31.23;;;;;;;26.28;100.00;100933.88;5061391;28;20393;-86
2022/06/14 09:42:18;;;;;;;40.80;38.03;;;;;;;26.44;100.00;100918.81;5079606;28;20053;-85
2022/06/14 09:45:21;;;;;;;46.83;43.58;;;;;;;26.44;100.00;100929.69;5056781;28;20049;-86
2022/06/14 09:48:27;;;;;;;39.47;36.88;;;;;;;25.57;100.00;100923.34;5059532;28;20045;-86
2022/06/14 09:51:06;;;;;;;51.70;47.95;;;;;;;25.68;100.00;100923.94;5059555;28;20049;-85
2022/06/14 09:54:17;;;;;;;68.38;63.80;;;;;;;25.45;100.00;100930.41;5056828;28;20378;-84
2022/06/14 09:57:10;;;;;;;55.67;52.28;;;;;;;25.57;100.00;100930.72;5043563;28;20580;-86
2022/06/14 10:00:21;;;;;;;72.03;67.10;;;;;;;25.71;100.00;100928.78;5066188;28;20041;-86
2022/06/14 10:03:20;;;;;;;58.40;54.40;;;;;;;25.44;100.00;100924.13;5071255;28;20091;-85
2022/06/14 10:06:32;;;;;;;51.95;48.63;;;;;;;25.47;100.00;100920.00;5071168;28;20489;-85
2022/06/14 10:09:42;;;;;;;65.68;61.58;;;;;;;25.13;100.00;100916.53;5004674;28;20046;-85
2022/06/14 10:12:27;;;;;;;65.90;61.55;;;;;;;25.50;100.00;100920.22;5012554;28;20057;-86
2022/06/14 10:15:06;;;;;;;68.78;64.20;;;;;;;25.46;100.00;100921.94;5058024;28;20045;-85
2022/06/14 10:18:14;;;;;;;59.88;55.60;;;;;;;25.40;100.00;100916.91;5056527;28;20450;-86
2022/06/14 10:21:02;;;;;;;59.10;54.65;;;;;;;25.05;100.00;100917.22;5068741;28;20044;-83
2022/06/14 10:23:57;;;;;;;48.28;44.53;;;;;;;25.01;100.00;100918.91;5070518;28;20108;-84
2022/06/14 10:29:40;;;;;;;49.88;46.17;;;;;;;24.66;100.00;100914.84;5057764;28;20052;-85
2022/06/14 10:32:37;;;;;;;59.22;54.92;;;;;;;24.52;100.00;100906.66;5055238;28;20051;-86
2022/06/14 10:35:12;;;;;;;52.22;48.55;;;;;;;24.62;100.00;100903.78;5072362;28;20048;-84
2022/06/14 10:37:53;;;;;;;74.68;68.85;;;;;;;24.93;100.00;100906.00;5056581;28;20398;-83
2022/06/14 10:40:41;;;;;;;76.00;70.30;;;;;;;24.73;100.00;100906.34;5075432;28;20506;-86
2022/06/14 10:43:16;;;;;;;54.17;49.88;;;;;;;24.88;100.00;100896.03;5059511;28;20126;-83
2022/06/14 10:45:49;;;;;;;79.68;73.47;;;;;;;25.23;100.00;100907.41;5071829;28;20515;-83
2022/06/14 10:48:46;;;;;;;102.82;94.95;;;;;;;25.74;100.00;100900.16;5058011;28;20041;-85
2022/06/14 10:51:35;;;;;;;79.38;73.55;;;;;;;25.81;100.00;100889.72;5060077;28;20548;-84
2022/06/14 10:54:09;;;;;;;70.32;64.97;;;;;;;25.86;100.00;100886.91;5050909;28;20045;-83
2022/06/14 10:57:01;;;;;;;52.65;48.63;;;;;;;25.71;100.00;100881.75;5045055;28;20053;-86
2022/06/14 10:59:55;;;;;;;56.65;52.42;;;;;;;25.30;100.00;100868.97;5049622;28;20041;-84
2022/06/14 11:02:37;;;;;;;87.72;81.60;;;;;;;26.52;100.00;100865.56;5047761;28;20064;-82
2022/06/14 11:05:15;;;;;;;40.22;37.58;;;;;;;26.42;100.00;100854.91;5067489;28;20134;-83
2022/06/14 11:08:05;;;;;;;39.50;36.45;;;;;;;27.19;100.00;100845.59;5053758;28;20053;-83
2022/06/14 11:11:01;;;;;;;46.22;43.13;;;;;;;27.55;100.00;100841.88;5044215;28;20054;-84
2022/06/14 11:13:43;;;;;;;34.90;32.67;;;;;;;26.40;100.00;100836.13;5052954;28;20080;-83
2022/06/14 11:16:22;;;;;;;48.23;44.73;;;;;;;27.52;100.00;100831.59;5058736;28;20076;-84
2022/06/14 11:19:32;;;;;;;34.72;32.33;;;;;;;26.93;100.00;100827.19;5046040;28;20548;-84
2022/06/14 11:22:11;;;;;;;36.22;33.85;;;;;;;27.64;100.00;100829.88;5049641;28;20088;-85
2022/06/14 11:24:43;;;;;;;33.10;31.08;;;;;;;27.42;100.00;100826.47;5062365;28;20048;-83
2022/06/14 11:27:22;;;;;;;38.97;36.53;;;;;;;27.48;100.00;100820.53;5052670;28;20048;-84
2022/06/14 11:30:03;;;;;;;37.60;35.10;;;;;;;27.15;100.00;100811.94;5058242;28;20424;-84
2022/06/14 11:32:41;;;;;;;34.60;32.40;;;;;;;27.79;100.00;100803.28;5051711;28;20478;-84
2022/06/14 11:35:18;;;;;;;31.95;29.75;;;;;;;27.65;100.00;100800.66;5045851;28;20044;-84
2022/06/14 11:38:20;;;;;;;32.05;29.67;;;;;;;27.56;100.00;100792.44;5057369;28;20037;-83
2022/06/14 11:40:53;;;;;;;35.78;33.42;;;;;;;28.46;100.00;100786.41;5069305;28;20409;-86
2022/06/14 11:43:32;;;;;;;32.53;30.33;;;;;;;27.38;100.00;100788.91;5054430;28;20052;-83
2022/06/14 11:46:13;;;;;;;44.03;40.83;;;;;;;28.79;100.00;100783.09;5066098;28;20125;-83
2022/06/14 11:48:50;;;;;;;34.10;31.80;;;;;;;29.20;100.00;100784.41;5053397;28;20044;-84
2022/06/14 11:51:28;;;;;;;31.15;29.23;;;;;;;29.26;100.00;100784.97;5053415;28;20057;-85
2022/06/14 11:54:17;;;;;;;31.08;29.13;;;;;;;29.33;100.00;100788.03;5073140;28;20465;-84
2022/06/14 11:56:58;;;;;;;30.50;28.60;;;;;;;29.37;100.00;100784.28;5060865;28;20055;-84
2022/06/14 11:59:45;;;;;;;30.33;28.33;;;;;;;29.39;100.00;100789.44;5059708;28;20036;-83
2022/06/14 12:02:37;;;;;;;31.20;29.25;;;;;;;28.37;100.00;100796.50;5046530;28;20052;-83
2022/06/14 12:05:19;;;;;;;30.55;28.35;;;;;;;27.79;100.00;100798.63;5059133;28;20052;-82
2022/06/14 12:07:57;;;;;;;30.83;28.63;;;;;;;27.77;100.00;100800.03;5072339;28;20049;-85
2022/06/14 12:10:47;;;;;;;33.00;30.83;;;;;;;27.85;100.00;100813.72;5054523;28;20481;-82
2022/06/14 12:13:28;;;;;;;33.42;30.83;;;;;;;28.07;100.00;100822.88;5060544;28;20448;-83
2022/06/14 12:16:04;;;;;;;32.08;29.83;;;;;;;28.38;100.00;100809.03;5060630;28;20053;-85
2022/06/14 12:18:36;;;;;;;29.70;27.52;;;;;;;29.12;100.00;100813.38;5062747;28;20492;-83